sensor_id;sensor_type;location;lat;lon;timestamp;pressure;altitude;pressure_sealevel;temperature;humidity
19783;BME280;10051;40.294;-3.754;2022-12-24T00:02:10;94897.53;;;10.35;100.00
19783;BME280;10051;40.294;-3.754;2022-12-24T00:04:36;94920.22;;;10.52;100.00
19783;BME280;10051;40.294;-3.754;2022-12-24T00:07:02;94977.66;;;10.96;100.00
19783;BME280;10051;40.294;-3.754;2022-12-24T00:09:28;94891.78;;;10.44;100.00
19783;BME280;10051;40.294;-3.754;2022-12-24T00:11:53;94924.47;;;10.68;100.00
19783;BME280;10051;40.294;-3.754;2022-12-24T00:14:19;94847.25;;;10.16;100.00
19783;BME280;10051;40.294;-3.754;2022-12-24T00:16:47;94978.72;;;11.06;100.00
19783;BME280;10051;40.294;-3.754;2022-12-24T00:19:13;94975.31;;;11.00;100.00
19783;BME280;10051;40.294;-3.754;2022-12-24T00:21:38;94874.13;;;10.34;100.00
19783;BME280;10051;40.294;-3.754;2022-12-24T00:24:04;94909.97;;;10.61;100.00
19783;BME280;10051;40.294;-3.754;2022-12-24T00:26:31;94972.41;;;11.01;100.00
19783;BME280;10051;40.294;-3.754;2022-12-24T00:28:57;94886.00;;;10.41;100.00
19783;BME280;10051;40.294;-3.754;2022-12-24T00:31:23;94910.25;;;10.59;100.00
19783;BME280;10051;40.294;-3.754;2022-12-24T00:33:49;94878.59;;;10.33;100.00
19783;BME280;10051;40.294;-3.754;2022-12-24T00:36:15;94966.34;;;10.96;100.00
19783;BME280;10051;40.294;-3.754;2022-12-24T00:38:41;94966.06;;;10.97;100.00
19783;BME280;10051;40.294;-3.754;2022-12-24T00:41:07;94872.84;;;10.47;100.00
19783;BME280;10051;40.294;-3.754;2022-12-24T00:44:03;94961.88;;;11.01;100.00
19783;BME280;10051;40.294;-3.754;2022-12-24T00:46:31;94836.22;;;10.19;100.00
19783;BME280;10051;40.294;-3.754;2022-12-24T00:48:57;94876.00;;;10.44;100.00
19783;BME280;10051;40.294;-3.754;2022-12-24T00:51:26;94962.66;;;10.97;100.00
19783;BME280;10051;40.294;-3.754;2022-12-24T00:53:52;94864.41;;;10.34;100.00
19783;BME280;10051;40.294;-3.754;2022-12-24T00:56:18;94882.84;;;10.39;100.00
19783;BME280;10051;40.294;-3.754;2022-12-24T00:58:44;94905.75;;;10.54;100.00
19783;BME280;10051;40.294;-3.754;2022-12-24T01:01:09;94965.28;;;10.86;100.00
19783;BME280;10051;40.294;-3.754;2022-12-24T01:03:35;94927.09;;;10.68;100.00
19783;BME280;10051;40.294;-3.754;2022-12-24T01:06:13;94963.94;;;10.84;100.00
19783;BME280;10051;40.294;-3.754;2022-12-24T01:08:39;94809.59;;;9.85;100.00
19783;BME280;10051;40.294;-3.754;2022-12-24T01:11:05;94963.16;;;10.78;100.00
19783;BME280;10051;40.294;-3.754;2022-12-24T01:13:34;94875.91;;;10.18;100.00
19783;BME280;10051;40.294;-3.754;2022-12-24T01:16:01;94958.13;;;10.71;100.00
19783;BME280;10051;40.294;-3.754;2022-12-24T01:18:27;94834.84;;;9.91;100.00
19783;BME280;10051;40.294;-3.754;2022-12-24T01:20:56;94954.19;;;10.69;100.00
19783;BME280;10051;40.294;-3.754;2022-12-24T01:23:23;94914.13;;;10.41;100.00
19783;BME280;10051;40.294;-3.754;2022-12-24T01:25:48;94927.03;;;10.48;100.00
19783;BME280;10051;40.294;-3.754;2022-12-24T01:28:20;94949.44;;;10.66;100.00
19783;BME280;10051;40.294;-3.754;2022-12-24T01:30:47;94951.28;;;10.65;100.00
19783;BME280;10051;40.294;-3.754;2022-12-24T01:33:13;94805.31;;;9.68;100.00
19783;BME280;10051;40.294;-3.754;2022-12-24T01:35:40;94861.69;;;10.08;100.00
19783;BME280;10051;40.294;-3.754;2022-12-24T01:38:06;94948.38;;;10.62;100.00
19783;BME280;10051;40.294;-3.754;2022-12-24T01:40:32;94920.47;;;10.45;100.00
19783;BME280;10051;40.294;-3.754;2022-12-24T01:43:18;94872.72;;;10.05;100.00
19783;BME280;10051;40.294;-3.754;2022-12-24T01:46:10;94940.97;;;10.48;100.00
19783;BME280;10051;40.294;-3.754;2022-12-24T01:48:59;94934.88;;;10.37;100.00
19783;BME280;10051;40.294;-3.754;2022-12-24T01:51:36;94905.34;;;10.20;100.00
19783;BME280;10051;40.294;-3.754;2022-12-24T01:54:09;94892.47;;;10.13;100.00
19783;BME280;10051;40.294;-3.754;2022-12-24T01:56:39;94863.72;;;9.86;100.00
19783;BME280;10051;40.294;-3.754;2022-12-24T01:59:10;94949.09;;;10.41;100.00
19783;BME280;10051;40.294;-3.754;2022-12-24T02:01:37;94938.03;;;10.39;100.00
19783;BME280;10051;40.294;-3.754;2022-12-24T02:04:10;94945.94;;;10.39;100.00
19783;BME280;10051;40.294;-3.754;2022-12-24T02:06:37;94882.16;;;10.01;100.00
19783;BME280;10051;40.294;-3.754;2022-12-24T02:09:05;94845.28;;;9.75;100.00
19783;BME280;10051;40.294;-3.754;2022-12-24T02:11:32;94937.47;;;10.32;100.00
19783;BME280;10051;40.294;-3.754;2022-12-24T02:14:01;94942.44;;;10.29;100.00
19783;BME280;10051;40.294;-3.754;2022-12-24T02:22:31;94951.13;;;10.24;100.00
19783;BME280;10051;40.294;-3.754;2022-12-24T02:28:18;94858.34;;;9.65;100.00
19783;BME280;10051;40.294;-3.754;2022-12-24T02:31:05;94896.84;;;9.97;100.00
19783;BME280;10051;40.294;-3.754;2022-12-24T02:36:24;94937.50;;;10.37;100.00
19783;BME280;10051;40.294;-3.754;2022-12-24T02:39:18;94910.06;;;10.12;100.00
19783;BME280;10051;40.294;-3.754;2022-12-24T02:41:48;94890.75;;;9.86;100.00
19783;BME280;10051;40.294;-3.754;2022-12-24T02:44:37;94918.97;;;10.06;100.00
19783;BME280;10051;40.294;-3.754;2022-12-24T02:47:07;94944.00;;;10.24;100.00
19783;BME280;10051;40.294;-3.754;2022-12-24T02:49:35;94839.16;;;9.59;100.00
19783;BME280;10051;40.294;-3.754;2022-12-24T02:52:02;94863.75;;;9.91;100.00
19783;BME280;10051;40.294;-3.754;2022-12-24T02:54:28;94898.78;;;10.12;100.00
19783;BME280;10051;40.294;-3.754;2022-12-24T03:00:08;94922.81;;;10.41;100.00
19783;BME280;10051;40.294;-3.754;2022-12-24T03:05:44;94925.34;;;10.21;100.00
19783;BME280;10051;40.294;-3.754;2022-12-24T03:08:17;94873.19;;;9.97;100.00
19783;BME280;10051;40.294;-3.754;2022-12-24T03:10:51;94924.03;;;10.29;100.00
19783;BME280;10051;40.294;-3.754;2022-12-24T03:13:20;94899.28;;;10.09;100.00
19783;BME280;10051;40.294;-3.754;2022-12-24T03:15:48;94876.91;;;10.01;100.00
19783;BME280;10051;40.294;-3.754;2022-12-24T03:18:18;94918.78;;;10.29;100.00
19783;BME280;10051;40.294;-3.754;2022-12-24T03:20:49;94921.91;;;10.15;100.00
19783;BME280;10051;40.294;-3.754;2022-12-24T03:23:17;94826.75;;;9.44;100.00
19783;BME280;10051;40.294;-3.754;2022-12-24T03:25:43;94918.97;;;10.06;100.00
19783;BME280;10051;40.294;-3.754;2022-12-24T03:28:12;94813.06;;;9.37;100.00
19783;BME280;10051;40.294;-3.754;2022-12-24T03:30:44;94888.97;;;9.92;100.00
19783;BME280;10051;40.294;-3.754;2022-12-24T03:33:11;94914.81;;;10.16;100.00
19783;BME280;10051;40.294;-3.754;2022-12-24T03:35:37;94914.53;;;10.12;100.00
19783;BME280;10051;40.294;-3.754;2022-12-24T03:38:03;94883.97;;;9.95;100.00
19783;BME280;10051;40.294;-3.754;2022-12-24T03:40:29;94847.34;;;9.68;100.00
19783;BME280;10051;40.294;-3.754;2022-12-24T03:42:54;94909.53;;;10.10;100.00
19783;BME280;10051;40.294;-3.754;2022-12-24T03:45:20;94851.56;;;9.74;100.00
19783;BME280;10051;40.294;-3.754;2022-12-24T03:47:45;94888.19;;;9.96;100.00
19783;BME280;10051;40.294;-3.754;2022-12-24T03:50:11;94884.50;;;9.92;100.00
19783;BME280;10051;40.294;-3.754;2022-12-24T03:52:37;94914.03;;;10.15;100.00
19783;BME280;10051;40.294;-3.754;2022-12-24T03:55:03;94857.91;;;9.78;100.00
19783;BME280;10051;40.294;-3.754;2022-12-24T03:57:29;94840.28;;;9.69;100.00
19783;BME280;10051;40.294;-3.754;2022-12-24T03:59:54;94785.75;;;9.33;100.00
19783;BME280;10051;40.294;-3.754;2022-12-24T04:02:20;94843.41;;;9.65;100.00
19783;BME280;10051;40.294;-3.754;2022-12-24T04:04:45;94908.25;;;10.13;100.00
19783;BME280;10051;40.294;-3.754;2022-12-24T04:07:11;94845.25;;;9.70;100.00
19783;BME280;10051;40.294;-3.754;2022-12-24T04:09:36;94905.81;;;10.06;100.00
19783;BME280;10051;40.294;-3.754;2022-12-24T04:12:03;94771.47;;;9.18;100.00
19783;BME280;10051;40.294;-3.754;2022-12-24T04:14:29;94894.25;;;10.02;100.00
19783;BME280;10051;40.294;-3.754;2022-12-24T04:16:54;94853.41;;;9.74;100.00
19783;BME280;10051;40.294;-3.754;2022-12-24T04:19:20;94894.25;;;10.02;100.00
19783;BME280;10051;40.294;-3.754;2022-12-24T04:21:46;94813.63;;;9.49;100.00
19783;BME280;10051;40.294;-3.754;2022-12-24T04:24:12;94789.94;;;9.34;100.00
19783;BME280;10051;40.294;-3.754;2022-12-24T04:26:38;94856.84;;;9.74;100.00
19783;BME280;10051;40.294;-3.754;2022-12-24T04:29:03;94754.66;;;9.14;100.00
19783;BME280;10051;40.294;-3.754;2022-12-24T04:31:29;94802.03;;;9.35;100.00
19783;BME280;10051;40.294;-3.754;2022-12-24T04:33:54;94850.50;;;9.70;100.00
19783;BME280;10051;40.294;-3.754;2022-12-24T04:36:20;94829.94;;;9.57;100.00
19783;BME280;10051;40.294;-3.754;2022-12-24T04:38:47;94849.19;;;9.73;100.00
19783;BME280;10051;40.294;-3.754;2022-12-24T04:41:15;94840.78;;;9.65;100.00
19783;BME280;10051;40.294;-3.754;2022-12-24T04:43:42;94760.94;;;9.08;100.00
19783;BME280;10051;40.294;-3.754;2022-12-24T04:46:10;94740.91;;;8.91;100.00
19783;BME280;10051;40.294;-3.754;2022-12-24T04:48:36;94832.00;;;9.44;100.00
19783;BME280;10051;40.294;-3.754;2022-12-24T04:51:04;94793.28;;;9.19;100.00
19783;BME280;10051;40.294;-3.754;2022-12-24T04:53:30;94857.56;;;9.64;100.00
19783;BME280;10051;40.294;-3.754;2022-12-24T04:55:56;94866.25;;;9.70;100.00
19783;BME280;10051;40.294;-3.754;2022-12-24T04:58:25;94870.47;;;9.71;100.00
19783;BME280;10051;40.294;-3.754;2022-12-24T05:00:51;94734.06;;;8.85;100.00
19783;BME280;10051;40.294;-3.754;2022-12-24T05:03:16;94862.81;;;9.64;100.00
19783;BME280;10051;40.294;-3.754;2022-12-24T05:05:47;94819.34;;;9.36;100.00
19783;BME280;10051;40.294;-3.754;2022-12-24T05:08:13;94734.03;;;8.80;100.00
19783;BME280;10051;40.294;-3.754;2022-12-24T05:10:39;94798.06;;;9.27;100.00
19783;BME280;10051;40.294;-3.754;2022-12-24T05:13:04;94788.53;;;9.16;100.00
19783;BME280;10051;40.294;-3.754;2022-12-24T05:15:30;94845.41;;;9.48;100.00
19783;BME280;10051;40.294;-3.754;2022-12-24T05:17:56;94863.34;;;9.61;100.00
19783;BME280;10051;40.294;-3.754;2022-12-24T05:20:22;94761.09;;;8.91;100.00
19783;BME280;10051;40.294;-3.754;2022-12-24T05:22:48;94713.16;;;8.58;100.00
19783;BME280;10051;40.294;-3.754;2022-12-24T05:25:37;94778.47;;;9.02;100.00
19783;BME280;10051;40.294;-3.754;2022-12-24T05:28:22;94836.19;;;9.40;100.00
19783;BME280;10051;40.294;-3.754;2022-12-24T05:30:51;94832.22;;;9.37;100.00
19783;BME280;10051;40.294;-3.754;2022-12-24T05:33:16;94863.06;;;9.63;100.00
19783;BME280;10051;40.294;-3.754;2022-12-24T05:35:42;94801.19;;;9.24;100.00
19783;BME280;10051;40.294;-3.754;2022-12-24T05:38:07;94776.66;;;9.08;100.00
19783;BME280;10051;40.294;-3.754;2022-12-24T05:40:33;94821.50;;;9.44;100.00
19783;BME280;10051;40.294;-3.754;2022-12-24T05:42:58;94784.06;;;9.16;100.00
19783;BME280;10051;40.294;-3.754;2022-12-24T05:45:25;94740.09;;;8.91;100.00
19783;BME280;10051;40.294;-3.754;2022-12-24T05:47:50;94850.47;;;9.65;100.00
19783;BME280;10051;40.294;-3.754;2022-12-24T05:50:16;94837.63;;;9.63;100.00
19783;BME280;10051;40.294;-3.754;2022-12-24T05:52:42;94769.06;;;9.06;100.00
19783;BME280;10051;40.294;-3.754;2022-12-24T05:55:08;94809.13;;;9.40;100.00
19783;BME280;10051;40.294;-3.754;2022-12-24T05:57:33;94800.44;;;9.34;100.00
19783;BME280;10051;40.294;-3.754;2022-12-24T05:59:59;94792.59;;;9.39;100.00
19783;BME280;10051;40.294;-3.754;2022-12-24T06:02:24;94832.09;;;9.65;100.00
19783;BME280;10051;40.294;-3.754;2022-12-24T06:04:50;94830.19;;;9.50;100.00
19783;BME280;10051;40.294;-3.754;2022-12-24T06:07:15;94753.25;;;8.96;100.00
19783;BME280;10051;40.294;-3.754;2022-12-24T06:09:41;94839.88;;;9.49;100.00
19783;BME280;10051;40.294;-3.754;2022-12-24T06:12:07;94707.00;;;8.74;100.00
19783;BME280;10051;40.294;-3.754;2022-12-24T06:14:32;94828.38;;;9.56;100.00
19783;BME280;10051;40.294;-3.754;2022-12-24T06:16:58;94732.00;;;8.92;100.00
19783;BME280;10051;40.294;-3.754;2022-12-24T06:19:24;94738.31;;;8.97;100.00
19783;BME280;10051;40.294;-3.754;2022-12-24T06:21:52;94768.09;;;9.18;100.00
19783;BME280;10051;40.294;-3.754;2022-12-24T06:24:17;94825.31;;;9.74;100.00
19783;BME280;10051;40.294;-3.754;2022-12-24T06:26:45;94757.88;;;9.27;100.00
19783;BME280;10051;40.294;-3.754;2022-12-24T06:29:11;94769.50;;;9.36;100.00
19783;BME280;10051;40.294;-3.754;2022-12-24T06:31:37;94826.59;;;9.72;100.00
19783;BME280;10051;40.294;-3.754;2022-12-24T06:34:02;94757.06;;;9.16;100.00
19783;BME280;10051;40.294;-3.754;2022-12-24T06:36:28;94762.38;;;9.26;100.00
19783;BME280;10051;40.294;-3.754;2022-12-24T06:38:54;94774.19;;;9.34;100.00
19783;BME280;10051;40.294;-3.754;2022-12-24T06:41:20;94815.50;;;9.54;100.00
19783;BME280;10051;40.294;-3.754;2022-12-24T06:43:48;94724.66;;;8.95;100.00
19783;BME280;10051;40.294;-3.754;2022-12-24T06:46:14;94735.75;;;9.07;100.00
19783;BME280;10051;40.294;-3.754;2022-12-24T06:48:42;94788.94;;;9.40;100.00
19783;BME280;10051;40.294;-3.754;2022-12-24T06:51:08;94826.31;;;9.63;100.00
19783;BME280;10051;40.294;-3.754;2022-12-24T06:53:34;94789.72;;;9.41;100.00
19783;BME280;10051;40.294;-3.754;2022-12-24T06:56:06;94785.75;;;9.33;100.00
19783;BME280;10051;40.294;-3.754;2022-12-24T06:58:33;94794.41;;;9.33;100.00
19783;BME280;10051;40.294;-3.754;2022-12-24T07:01:04;94786.22;;;9.25;100.00
19783;BME280;10051;40.294;-3.754;2022-12-24T07:03:30;94785.66;;;9.17;100.00
19783;BME280;10051;40.294;-3.754;2022-12-24T07:05:56;94808.81;;;9.31;100.00
19783;BME280;10051;40.294;-3.754;2022-12-24T07:08:22;94732.66;;;8.72;100.00
19783;BME280;10051;40.294;-3.754;2022-12-24T07:10:49;94777.72;;;9.07;100.00
19783;BME280;10051;40.294;-3.754;2022-12-24T07:13:15;94709.25;;;8.60;100.00
19783;BME280;10051;40.294;-3.754;2022-12-24T07:15:43;94739.69;;;8.67;100.00
19783;BME280;10051;40.294;-3.754;2022-12-24T07:18:18;94764.53;;;8.91;100.00
19783;BME280;10051;40.294;-3.754;2022-12-24T07:20:44;94686.13;;;8.52;100.00
19783;BME280;10051;40.294;-3.754;2022-12-24T07:23:09;94760.00;;;8.87;100.00
19783;BME280;10051;40.294;-3.754;2022-12-24T07:25:41;94826.16;;;9.32;100.00
19783;BME280;10051;40.294;-3.754;2022-12-24T07:28:09;94838.28;;;9.38;100.00
19783;BME280;10051;40.294;-3.754;2022-12-24T07:30:35;94840.91;;;9.38;100.00
19783;BME280;10051;40.294;-3.754;2022-12-24T07:33:01;94734.94;;;8.58;100.00
19783;BME280;10051;40.294;-3.754;2022-12-24T07:35:26;94845.53;;;9.26;100.00
19783;BME280;10051;40.294;-3.754;2022-12-24T07:37:52;94746.69;;;8.56;100.00
19783;BME280;10051;40.294;-3.754;2022-12-24T07:40:17;94754.31;;;8.57;100.00
19783;BME280;10051;40.294;-3.754;2022-12-24T07:42:45;94815.97;;;8.98;100.00
19783;BME280;10051;40.294;-3.754;2022-12-24T07:45:14;94792.25;;;8.82;100.00
19783;BME280;10051;40.294;-3.754;2022-12-24T07:47:39;94859.69;;;9.25;100.00
19783;BME280;10051;40.294;-3.754;2022-12-24T07:50:05;94859.97;;;9.28;100.00
19783;BME280;10051;40.294;-3.754;2022-12-24T07:52:34;94807.06;;;8.99;100.00
19783;BME280;10051;40.294;-3.754;2022-12-24T07:55:02;94859.53;;;9.42;100.00
19783;BME280;10051;40.294;-3.754;2022-12-24T07:57:30;94841.91;;;9.32;100.00
19783;BME280;10051;40.294;-3.754;2022-12-24T07:59:56;94784.50;;;8.98;100.00
19783;BME280;10051;40.294;-3.754;2022-12-24T08:02:22;94785.56;;;9.02;100.00
19783;BME280;10051;40.294;-3.754;2022-12-24T08:04:48;94767.16;;;8.91;100.00
19783;BME280;10051;40.294;-3.754;2022-12-24T08:07:13;94803.25;;;9.17;100.00
19783;BME280;10051;40.294;-3.754;2022-12-24T08:09:39;94824.09;;;9.39;100.00
19783;BME280;10051;40.294;-3.754;2022-12-24T08:12:05;94868.63;;;9.72;100.00
19783;BME280;10051;40.294;-3.754;2022-12-24T08:14:31;94769.84;;;9.02;100.00
19783;BME280;10051;40.294;-3.754;2022-12-24T08:16:56;94872.59;;;9.74;100.00
19783;BME280;10051;40.294;-3.754;2022-12-24T08:19:22;94891.47;;;9.71;100.00
19783;BME280;10051;40.294;-3.754;2022-12-24T08:21:48;94771.88;;;8.95;100.00
19783;BME280;10051;40.294;-3.754;2022-12-24T08:24:13;94856.72;;;9.48;100.00
19783;BME280;10051;40.294;-3.754;2022-12-24T08:26:39;94829.84;;;9.36;100.00
19783;BME280;10051;40.294;-3.754;2022-12-24T08:29:05;94682.78;;;8.29;100.00
19783;BME280;10051;40.294;-3.754;2022-12-24T08:31:31;94901.44;;;9.69;100.00
19783;BME280;10051;40.294;-3.754;2022-12-24T08:34:02;94828.72;;;9.21;100.00
19783;BME280;10051;40.294;-3.754;2022-12-24T08:36:28;94822.41;;;9.22;100.00
19783;BME280;10051;40.294;-3.754;2022-12-24T08:38:53;94794.75;;;9.04;100.00
19783;BME280;10051;40.294;-3.754;2022-12-24T08:41:19;94756.06;;;8.84;100.00
19783;BME280;10051;40.294;-3.754;2022-12-24T08:43:44;94902.00;;;9.76;100.00
19783;BME280;10051;40.294;-3.754;2022-12-24T08:46:10;94868.06;;;9.59;100.00
19783;BME280;10051;40.294;-3.754;2022-12-24T08:48:36;94875.97;;;9.64;100.00
19783;BME280;10051;40.294;-3.754;2022-12-24T08:51:09;94875.19;;;9.69;100.00
19783;BME280;10051;40.294;-3.754;2022-12-24T08:53:35;94894.09;;;9.71;100.00
19783;BME280;10051;40.294;-3.754;2022-12-24T08:56:03;94895.69;;;9.72;100.00
19783;BME280;10051;40.294;-3.754;2022-12-24T08:58:33;94911.00;;;9.86;100.00
19783;BME280;10051;40.294;-3.754;2022-12-24T09:00:58;94834.59;;;9.39;100.00
19783;BME280;10051;40.294;-3.754;2022-12-24T09:03:24;94917.88;;;9.97;100.00
19783;BME280;10051;40.294;-3.754;2022-12-24T09:05:50;94915.00;;;9.99;100.00
19783;BME280;10051;40.294;-3.754;2022-12-24T09:08:19;94892.06;;;9.84;100.00
19783;BME280;10051;40.294;-3.754;2022-12-24T09:10:45;94851.97;;;9.50;100.00
19783;BME280;10051;40.294;-3.754;2022-12-24T09:13:11;94857.22;;;9.50;100.00
19783;BME280;10051;40.294;-3.754;2022-12-24T09:15:36;94922.06;;;9.93;100.00
19783;BME280;10051;40.294;-3.754;2022-12-24T09:18:02;94781.44;;;9.16;100.00
19783;BME280;10051;40.294;-3.754;2022-12-24T09:20:28;94838.34;;;9.48;100.00
19783;BME280;10051;40.294;-3.754;2022-12-24T09:22:54;94924.22;;;10.06;100.00
19783;BME280;10051;40.294;-3.754;2022-12-24T09:25:20;94935.00;;;10.05;100.00
19783;BME280;10051;40.294;-3.754;2022-12-24T09:27:45;94907.31;;;9.81;100.00
19783;BME280;10051;40.294;-3.754;2022-12-24T09:30:12;94876.97;;;9.58;100.00
19783;BME280;10051;40.294;-3.754;2022-12-24T09:32:37;94880.34;;;9.53;100.00
19783;BME280;10051;40.294;-3.754;2022-12-24T09:35:03;94858.13;;;9.23;100.00
19783;BME280;10051;40.294;-3.754;2022-12-24T09:37:29;94883.13;;;9.36;100.00
19783;BME280;10051;40.294;-3.754;2022-12-24T09:39:55;94805.88;;;8.79;100.00
19783;BME280;10051;40.294;-3.754;2022-12-24T09:42:59;94933.88;;;9.47;100.00
19783;BME280;10051;40.294;-3.754;2022-12-24T09:45:34;94937.50;;;9.41;100.00
19783;BME280;10051;40.294;-3.754;2022-12-24T09:48:08;94884.28;;;9.13;100.00
19783;BME280;10051;40.294;-3.754;2022-12-24T09:53:15;94807.75;;;8.51;100.00
19783;BME280;10051;40.294;-3.754;2022-12-24T09:55:46;94933.34;;;9.50;100.00
19783;BME280;10051;40.294;-3.754;2022-12-24T09:58:29;94939.66;;;9.49;100.00
19783;BME280;10051;40.294;-3.754;2022-12-24T10:00:58;94906.00;;;9.41;100.00
19783;BME280;10051;40.294;-3.754;2022-12-24T10:03:23;94902.88;;;9.49;100.00
19783;BME280;10051;40.294;-3.754;2022-12-24T10:11:08;94939.88;;;9.80;100.00
19783;BME280;10051;40.294;-3.754;2022-12-24T10:13:55;94875.47;;;9.30;100.00
19783;BME280;10051;40.294;-3.754;2022-12-24T10:21:57;94826.28;;;9.10;100.00
19783;BME280;10051;40.294;-3.754;2022-12-24T10:27:00;94928.09;;;9.93;100.00
19783;BME280;10051;40.294;-3.754;2022-12-24T10:29:38;94847.72;;;9.39;100.00
19783;BME280;10051;40.294;-3.754;2022-12-24T10:32:34;94932.63;;;10.08;100.00
19783;BME280;10051;40.294;-3.754;2022-12-24T10:35:10;94881.00;;;9.76;100.00
19783;BME280;10051;40.294;-3.754;2022-12-24T10:37:47;94901.06;;;9.93;100.00
19783;BME280;10051;40.294;-3.754;2022-12-24T10:40:22;94917.44;;;10.16;100.00
19783;BME280;10051;40.294;-3.754;2022-12-24T10:42:58;94856.91;;;9.95;100.00
19783;BME280;10051;40.294;-3.754;2022-12-24T10:45:26;94714.41;;;8.93;100.00
19783;BME280;10051;40.294;-3.754;2022-12-24T10:48:00;94720.00;;;9.02;100.00
19783;BME280;10051;40.294;-3.754;2022-12-24T10:50:53;94791.09;;;9.59;100.00
19783;BME280;10051;40.294;-3.754;2022-12-24T10:53:31;94774.56;;;9.58;100.00
19783;BME280;10051;40.294;-3.754;2022-12-24T10:56:04;94789.56;;;9.68;100.00
19783;BME280;10051;40.294;-3.754;2022-12-24T10:58:32;94815.13;;;9.93;100.00
19783;BME280;10051;40.294;-3.754;2022-12-24T11:01:01;94710.66;;;9.27;100.00
19783;BME280;10051;40.294;-3.754;2022-12-24T11:03:33;94711.50;;;9.43;100.00
19783;BME280;10051;40.294;-3.754;2022-12-24T11:06:17;94703.88;;;9.36;100.00
19783;BME280;10051;40.294;-3.754;2022-12-24T11:08:47;94714.88;;;9.33;100.00
19783;BME280;10051;40.294;-3.754;2022-12-24T11:11:24;94681.75;;;9.16;100.00
19783;BME280;10051;40.294;-3.754;2022-12-24T11:14:17;94841.28;;;10.36;100.00
19783;BME280;10051;40.294;-3.754;2022-12-24T11:16:54;94768.09;;;9.87;100.00
19783;BME280;10051;40.294;-3.754;2022-12-24T11:19:36;94688.34;;;9.29;100.00
19783;BME280;10051;40.294;-3.754;2022-12-24T11:22:15;94717.09;;;9.72;100.00
19783;BME280;10051;40.294;-3.754;2022-12-24T11:24:42;94762.13;;;10.12;100.00
19783;BME280;10051;40.294;-3.754;2022-12-24T11:27:29;94857.13;;;10.88;100.00
19783;BME280;10051;40.294;-3.754;2022-12-24T11:30:17;94840.28;;;10.94;100.00
19783;BME280;10051;40.294;-3.754;2022-12-24T11:32:49;94871.06;;;11.25;100.00
19783;BME280;10051;40.294;-3.754;2022-12-24T11:35:23;94874.22;;;11.32;100.00
19783;BME280;10051;40.294;-3.754;2022-12-24T11:38:11;94868.16;;;11.37;100.00
19783;BME280;10051;40.294;-3.754;2022-12-24T11:40:42;94860.53;;;11.45;100.00
19783;BME280;10051;40.294;-3.754;2022-12-24T11:43:18;94842.34;;;11.34;100.00
19783;BME280;10051;40.294;-3.754;2022-12-24T11:45:52;94841.28;;;11.50;100.00
19783;BME280;10051;40.294;-3.754;2022-12-24T11:48:29;94857.09;;;11.50;100.00
19783;BME280;10051;40.294;-3.754;2022-12-24T11:51:06;94765.84;;;10.89;100.00
19783;BME280;10051;40.294;-3.754;2022-12-24T11:53:50;94852.34;;;11.47;100.00
19783;BME280;10051;40.294;-3.754;2022-12-24T11:56:29;94848.91;;;11.52;100.00
19783;BME280;10051;40.294;-3.754;2022-12-24T11:59:01;94776.06;;;11.16;100.00
19783;BME280;10051;40.294;-3.754;2022-12-24T12:01:34;94835.19;;;11.65;100.00
19783;BME280;10051;40.294;-3.754;2022-12-24T12:04:09;94836.25;;;11.59;100.00
19783;BME280;10051;40.294;-3.754;2022-12-24T12:09:12;94734.28;;;10.94;100.00
19783;BME280;10051;40.294;-3.754;2022-12-24T12:11:41;94711.41;;;10.79;100.00
19783;BME280;10051;40.294;-3.754;2022-12-24T12:14:17;94772.63;;;11.26;100.00
19783;BME280;10051;40.294;-3.754;2022-12-24T12:16:50;94831.75;;;11.70;100.00
19783;BME280;10051;40.294;-3.754;2022-12-24T12:19:58;94811.78;;;11.58;100.00
19783;BME280;10051;40.294;-3.754;2022-12-24T12:24:55;94817.50;;;11.71;100.00
19783;BME280;10051;40.294;-3.754;2022-12-24T12:27:38;94815.38;;;11.73;100.00
19783;BME280;10051;40.294;-3.754;2022-12-24T12:30:14;94815.94;;;11.70;100.00
19783;BME280;10051;40.294;-3.754;2022-12-24T12:32:56;94814.09;;;11.70;100.00
19783;BME280;10051;40.294;-3.754;2022-12-24T12:35:36;94814.84;;;11.76;100.00
19783;BME280;10051;40.294;-3.754;2022-12-24T12:38:09;94810.91;;;11.79;100.00
19783;BME280;10051;40.294;-3.754;2022-12-24T12:43:34;94804.31;;;11.76;100.00
19783;BME280;10051;40.294;-3.754;2022-12-24T12:49:32;94780.44;;;11.52;100.00
19783;BME280;10051;40.294;-3.754;2022-12-24T12:57:10;94702.94;;;10.97;100.00
19783;BME280;10051;40.294;-3.754;2022-12-24T13:00:24;94746.81;;;11.28;100.00
19783;BME280;10051;40.294;-3.754;2022-12-24T13:14:02;94770.69;;;11.52;100.00
19783;BME280;10051;40.294;-3.754;2022-12-24T13:21:33;94748.59;;;11.43;100.00
19783;BME280;10051;40.294;-3.754;2022-12-24T13:24:20;94722.81;;;11.40;100.00
19783;BME280;10051;40.294;-3.754;2022-12-24T13:27:00;94754.84;;;11.63;100.00
19783;BME280;10051;40.294;-3.754;2022-12-24T13:29:40;94706.25;;;11.29;100.00
19783;BME280;10051;40.294;-3.754;2022-12-24T13:34:52;94741.22;;;11.45;100.00
19783;BME280;10051;40.294;-3.754;2022-12-24T13:50:43;94706.56;;;11.17;100.00
19783;BME280;10051;40.294;-3.754;2022-12-24T13:56:37;94697.03;;;11.31;100.00
19783;BME280;10051;40.294;-3.754;2022-12-24T13:58:55;94662.38;;;11.09;100.00
19783;BME280;10051;40.294;-3.754;2022-12-24T14:01:37;94695.97;;;11.38;100.00
19783;BME280;10051;40.294;-3.754;2022-12-24T14:04:07;94648.97;;;11.05;100.00
19783;BME280;10051;40.294;-3.754;2022-12-24T14:06:39;94721.69;;;11.62;100.00
19783;BME280;10051;40.294;-3.754;2022-12-24T14:09:18;94623.47;;;11.00;100.00
19783;BME280;10051;40.294;-3.754;2022-12-24T14:14:36;94696.50;;;11.35;100.00
19783;BME280;10051;40.294;-3.754;2022-12-24T14:17:19;94682.56;;;11.29;100.00
19783;BME280;10051;40.294;-3.754;2022-12-24T14:19:53;94715.06;;;11.64;100.00
19783;BME280;10051;40.294;-3.754;2022-12-24T14:22:30;94707.88;;;11.75;100.00
19783;BME280;10051;40.294;-3.754;2022-12-24T14:25:02;94666.41;;;11.51;100.00
19783;BME280;10051;40.294;-3.754;2022-12-24T14:27:38;94702.59;;;11.80;100.00
19783;BME280;10051;40.294;-3.754;2022-12-24T14:32:42;94692.06;;;11.80;100.00